sensor_id;sensor_type;location;lat;lon;timestamp;temperature;humidity
23815;DHT22;12088;53.078;8.720;2023-02-15T00:00:25;1.80;99.90
23815;DHT22;12088;53.078;8.720;2023-02-15T00:02:51;1.90;99.90
23815;DHT22;12088;53.078;8.720;2023-02-15T00:05:16;1.90;99.90
23815;DHT22;12088;53.078;8.720;2023-02-15T00:07:42;2.00;99.90
23815;DHT22;12088;53.078;8.720;2023-02-15T00:10:08;2.10;99.90
23815;DHT22;12088;53.078;8.720;2023-02-15T00:12:33;2.20;99.90
23815;DHT22;12088;53.078;8.720;2023-02-15T00:14:59;2.40;99.90
23815;DHT22;12088;53.078;8.720;2023-02-15T00:17:27;2.50;99.90
23815;DHT22;12088;53.078;8.720;2023-02-15T00:19:52;2.60;99.90
23815;DHT22;12088;53.078;8.720;2023-02-15T00:22:18;2.50;99.90
23815;DHT22;12088;53.078;8.720;2023-02-15T00:24:43;2.50;99.90
23815;DHT22;12088;53.078;8.720;2023-02-15T00:27:09;2.60;99.90
23815;DHT22;12088;53.078;8.720;2023-02-15T00:29:34;2.70;99.90
23815;DHT22;12088;53.078;8.720;2023-02-15T00:32:00;2.60;99.90
23815;DHT22;12088;53.078;8.720;2023-02-15T00:34:27;2.50;99.90
23815;DHT22;12088;53.078;8.720;2023-02-15T00:36:53;2.50;99.90
23815;DHT22;12088;53.078;8.720;2023-02-15T00:39:19;2.40;99.90
23815;DHT22;12088;53.078;8.720;2023-02-15T00:41:45;2.20;99.90
23815;DHT22;12088;53.078;8.720;2023-02-15T00:44:11;2.10;99.90
23815;DHT22;12088;53.078;8.720;2023-02-15T00:46:37;1.90;99.90
23815;DHT22;12088;53.078;8.720;2023-02-15T00:49:03;1.80;99.90
23815;DHT22;12088;53.078;8.720;2023-02-15T00:51:29;1.80;99.90
23815;DHT22;12088;53.078;8.720;2023-02-15T00:53:54;1.90;99.90
23815;DHT22;12088;53.078;8.720;2023-02-15T00:56:20;2.00;99.90
23815;DHT22;12088;53.078;8.720;2023-02-15T00:58:46;2.20;99.90
23815;DHT22;12088;53.078;8.720;2023-02-15T01:01:14;2.30;99.90
23815;DHT22;12088;53.078;8.720;2023-02-15T01:03:40;2.50;99.90
23815;DHT22;12088;53.078;8.720;2023-02-15T01:06:09;2.50;99.90
23815;DHT22;12088;53.078;8.720;2023-02-15T01:08:35;2.60;99.90
23815;DHT22;12088;53.078;8.720;2023-02-15T01:11:05;2.70;99.90
23815;DHT22;12088;53.078;8.720;2023-02-15T01:13:32;2.70;99.90
23815;DHT22;12088;53.078;8.720;2023-02-15T01:15:57;2.80;99.90
23815;DHT22;12088;53.078;8.720;2023-02-15T01:18:23;2.70;99.90
23815;DHT22;12088;53.078;8.720;2023-02-15T01:20:49;2.70;99.90
23815;DHT22;12088;53.078;8.720;2023-02-15T01:23:14;2.80;99.90
23815;DHT22;12088;53.078;8.720;2023-02-15T01:25:40;2.70;99.90
23815;DHT22;12088;53.078;8.720;2023-02-15T01:28:05;2.70;99.90
23815;DHT22;12088;53.078;8.720;2023-02-15T01:30:31;2.70;99.90
23815;DHT22;12088;53.078;8.720;2023-02-15T01:32:57;2.60;99.90
23815;DHT22;12088;53.078;8.720;2023-02-15T01:35:23;2.70;99.90
23815;DHT22;12088;53.078;8.720;2023-02-15T01:37:49;2.60;99.90
23815;DHT22;12088;53.078;8.720;2023-02-15T01:40:16;2.60;99.90
23815;DHT22;12088;53.078;8.720;2023-02-15T01:42:42;2.40;99.90
23815;DHT22;12088;53.078;8.720;2023-02-15T01:45:26;2.40;99.90
23815;DHT22;12088;53.078;8.720;2023-02-15T01:48:04;2.40;99.90
23815;DHT22;12088;53.078;8.720;2023-02-15T01:50:33;2.30;99.90
23815;DHT22;12088;53.078;8.720;2023-02-15T01:53:11;2.30;99.90
23815;DHT22;12088;53.078;8.720;2023-02-15T01:55:55;2.20;99.90
23815;DHT22;12088;53.078;8.720;2023-02-15T01:58:22;2.10;99.90
23815;DHT22;12088;53.078;8.720;2023-02-15T02:00:49;2.10;99.90
23815;DHT22;12088;53.078;8.720;2023-02-15T02:03:15;2.00;99.90
23815;DHT22;12088;53.078;8.720;2023-02-15T02:05:40;2.10;99.90
23815;DHT22;12088;53.078;8.720;2023-02-15T02:08:07;2.00;99.90
23815;DHT22;12088;53.078;8.720;2023-02-15T02:10:35;2.00;99.90
23815;DHT22;12088;53.078;8.720;2023-02-15T02:13:04;1.90;99.90
23815;DHT22;12088;53.078;8.720;2023-02-15T02:15:44;1.80;99.90
23815;DHT22;12088;53.078;8.720;2023-02-15T02:18:30;1.70;99.90
23815;DHT22;12088;53.078;8.720;2023-02-15T02:24:24;1.60;99.90
23815;DHT22;12088;53.078;8.720;2023-02-15T02:27:20;1.60;99.90
23815;DHT22;12088;53.078;8.720;2023-02-15T02:30:05;1.60;99.90
23815;DHT22;12088;53.078;8.720;2023-02-15T02:35:39;1.60;99.90
23815;DHT22;12088;53.078;8.720;2023-02-15T02:38:27;1.60;99.90
23815;DHT22;12088;53.078;8.720;2023-02-15T02:44:12;1.70;99.90
23815;DHT22;12088;53.078;8.720;2023-02-15T02:49:11;1.70;99.90
23815;DHT22;12088;53.078;8.720;2023-02-15T02:51:37;1.60;99.90
23815;DHT22;12088;53.078;8.720;2023-02-15T02:54:05;1.60;99.90
23815;DHT22;12088;53.078;8.720;2023-02-15T02:56:43;1.50;99.90
23815;DHT22;12088;53.078;8.720;2023-02-15T02:59:54;1.50;99.90
23815;DHT22;12088;53.078;8.720;2023-02-15T03:02:15;1.50;99.90
23815;DHT22;12088;53.078;8.720;2023-02-15T03:04:47;1.30;99.90
23815;DHT22;12088;53.078;8.720;2023-02-15T03:07:18;1.30;99.90
23815;DHT22;12088;53.078;8.720;2023-02-15T03:09:50;1.20;99.90
23815;DHT22;12088;53.078;8.720;2023-02-15T03:12:20;1.20;99.90
23815;DHT22;12088;53.078;8.720;2023-02-15T03:14:53;1.20;99.90
23815;DHT22;12088;53.078;8.720;2023-02-15T03:17:22;1.20;99.90
23815;DHT22;12088;53.078;8.720;2023-02-15T03:19:50;1.20;99.90
23815;DHT22;12088;53.078;8.720;2023-02-15T03:22:21;1.20;99.90
23815;DHT22;12088;53.078;8.720;2023-02-15T03:24:52;1.10;99.90
23815;DHT22;12088;53.078;8.720;2023-02-15T03:27:23;1.20;99.90
23815;DHT22;12088;53.078;8.720;2023-02-15T03:29:53;1.20;99.90
23815;DHT22;12088;53.078;8.720;2023-02-15T03:32:20;1.20;99.90
23815;DHT22;12088;53.078;8.720;2023-02-15T03:34:46;1.20;99.90
23815;DHT22;12088;53.078;8.720;2023-02-15T03:37:39;1.20;99.90
23815;DHT22;12088;53.078;8.720;2023-02-15T03:40:58;1.10;99.90
23815;DHT22;12088;53.078;8.720;2023-02-15T03:46:34;0.80;99.90
23815;DHT22;12088;53.078;8.720;2023-02-15T03:51:46;1.20;99.90
23815;DHT22;12088;53.078;8.720;2023-02-15T03:54:21;1.00;99.90
23815;DHT22;12088;53.078;8.720;2023-02-15T03:57:08;1.00;99.90
23815;DHT22;12088;53.078;8.720;2023-02-15T03:59:53;0.70;99.90
23815;DHT22;12088;53.078;8.720;2023-02-15T04:02:44;0.80;99.90
23815;DHT22;12088;53.078;8.720;2023-02-15T04:05:12;0.80;99.90
23815;DHT22;12088;53.078;8.720;2023-02-15T04:07:37;0.80;99.90
23815;DHT22;12088;53.078;8.720;2023-02-15T04:10:03;0.80;99.90
23815;DHT22;12088;53.078;8.720;2023-02-15T04:12:47;0.80;99.90
23815;DHT22;12088;53.078;8.720;2023-02-15T04:15:12;0.70;99.90
23815;DHT22;12088;53.078;8.720;2023-02-15T04:17:56;0.90;99.90
23815;DHT22;12088;53.078;8.720;2023-02-15T04:20:22;0.90;99.90
23815;DHT22;12088;53.078;8.720;2023-02-15T04:23:07;0.70;99.90
23815;DHT22;12088;53.078;8.720;2023-02-15T04:25:51;0.80;99.90
23815;DHT22;12088;53.078;8.720;2023-02-15T04:28:16;0.80;99.90
23815;DHT22;12088;53.078;8.720;2023-02-15T04:30:42;0.90;99.90
23815;DHT22;12088;53.078;8.720;2023-02-15T04:33:07;0.80;99.90
23815;DHT22;12088;53.078;8.720;2023-02-15T04:35:33;0.60;99.90
23815;DHT22;12088;53.078;8.720;2023-02-15T04:37:59;0.70;99.90
23815;DHT22;12088;53.078;8.720;2023-02-15T04:40:24;0.70;99.90
23815;DHT22;12088;53.078;8.720;2023-02-15T04:42:50;0.60;99.90
23815;DHT22;12088;53.078;8.720;2023-02-15T04:45:16;0.60;99.90
23815;DHT22;12088;53.078;8.720;2023-02-15T04:47:42;0.40;99.90
23815;DHT22;12088;53.078;8.720;2023-02-15T04:50:08;0.40;99.90
23815;DHT22;12088;53.078;8.720;2023-02-15T04:52:34;0.30;99.90
23815;DHT22;12088;53.078;8.720;2023-02-15T04:54:59;0.20;99.90
23815;DHT22;12088;53.078;8.720;2023-02-15T04:57:25;0.30;99.90
23815;DHT22;12088;53.078;8.720;2023-02-15T04:59:50;0.40;99.90
23815;DHT22;12088;53.078;8.720;2023-02-15T05:02:15;0.20;99.90
23815;DHT22;12088;53.078;8.720;2023-02-15T05:04:41;0.20;99.90
23815;DHT22;12088;53.078;8.720;2023-02-15T05:07:06;0.20;99.90
23815;DHT22;12088;53.078;8.720;2023-02-15T05:09:32;0.30;99.90
23815;DHT22;12088;53.078;8.720;2023-02-15T05:11:57;0.30;99.90
23815;DHT22;12088;53.078;8.720;2023-02-15T05:14:23;0.30;99.90
23815;DHT22;12088;53.078;8.720;2023-02-15T05:16:48;0.30;99.90
23815;DHT22;12088;53.078;8.720;2023-02-15T05:19:14;0.30;99.90
23815;DHT22;12088;53.078;8.720;2023-02-15T05:21:40;0.30;99.90
23815;DHT22;12088;53.078;8.720;2023-02-15T05:24:05;0.30;99.90
23815;DHT22;12088;53.078;8.720;2023-02-15T05:26:51;0.20;99.90
23815;DHT22;12088;53.078;8.720;2023-02-15T05:29:35;0.10;99.90
23815;DHT22;12088;53.078;8.720;2023-02-15T05:32:00;0.10;99.90
23815;DHT22;12088;53.078;8.720;2023-02-15T05:34:27;0.10;99.90
23815;DHT22;12088;53.078;8.720;2023-02-15T05:36:53;0.20;99.90
23815;DHT22;12088;53.078;8.720;2023-02-15T05:39:18;0.00;99.90
23815;DHT22;12088;53.078;8.720;2023-02-15T05:41:43;-0.10;99.90
23815;DHT22;12088;53.078;8.720;2023-02-15T05:44:09;-0.20;99.90
23815;DHT22;12088;53.078;8.720;2023-02-15T05:46:34;-0.10;99.90
23815;DHT22;12088;53.078;8.720;2023-02-15T05:49:00;-0.10;99.90
23815;DHT22;12088;53.078;8.720;2023-02-15T05:51:25;-0.20;99.90
23815;DHT22;12088;53.078;8.720;2023-02-15T05:53:51;-0.10;99.90
23815;DHT22;12088;53.078;8.720;2023-02-15T05:56:16;-0.20;99.90
23815;DHT22;12088;53.078;8.720;2023-02-15T05:58:42;-0.10;99.90
23815;DHT22;12088;53.078;8.720;2023-02-15T06:01:09;-0.10;99.90
23815;DHT22;12088;53.078;8.720;2023-02-15T06:03:35;-0.10;99.90
23815;DHT22;12088;53.078;8.720;2023-02-15T06:06:00;0.00;99.90
23815;DHT22;12088;53.078;8.720;2023-02-15T06:08:27;0.00;99.90
23815;DHT22;12088;53.078;8.720;2023-02-15T06:10:52;0.00;99.90
23815;DHT22;12088;53.078;8.720;2023-02-15T06:13:18;0.10;99.90
23815;DHT22;12088;53.078;8.720;2023-02-15T06:15:43;0.00;99.90
23815;DHT22;12088;53.078;8.720;2023-02-15T06:18:08;0.00;99.90
23815;DHT22;12088;53.078;8.720;2023-02-15T06:20:34;0.00;99.90
23815;DHT22;12088;53.078;8.720;2023-02-15T06:22:59;-0.10;99.90
23815;DHT22;12088;53.078;8.720;2023-02-15T06:25:25;-0.20;99.90
23815;DHT22;12088;53.078;8.720;2023-02-15T06:27:50;-0.30;99.90
23815;DHT22;12088;53.078;8.720;2023-02-15T06:30:16;-0.40;99.90
23815;DHT22;12088;53.078;8.720;2023-02-15T06:32:42;-0.40;99.90
23815;DHT22;12088;53.078;8.720;2023-02-15T06:35:07;-0.20;99.90
23815;DHT22;12088;53.078;8.720;2023-02-15T06:37:33;-0.30;99.90
23815;DHT22;12088;53.078;8.720;2023-02-15T06:39:58;-0.30;99.90
23815;DHT22;12088;53.078;8.720;2023-02-15T06:42:24;-0.30;99.90
23815;DHT22;12088;53.078;8.720;2023-02-15T06:44:50;-0.30;99.90
23815;DHT22;12088;53.078;8.720;2023-02-15T06:47:16;-0.30;99.90
23815;DHT22;12088;53.078;8.720;2023-02-15T06:49:41;-0.30;99.90
23815;DHT22;12088;53.078;8.720;2023-02-15T06:52:07;-0.30;99.90
23815;DHT22;12088;53.078;8.720;2023-02-15T06:54:32;-0.30;99.90
23815;DHT22;12088;53.078;8.720;2023-02-15T06:56:58;-0.30;99.90
23815;DHT22;12088;53.078;8.720;2023-02-15T06:59:23;-0.30;99.90
23815;DHT22;12088;53.078;8.720;2023-02-15T07:01:48;-0.40;99.90
23815;DHT22;12088;53.078;8.720;2023-02-15T07:04:14;-0.30;99.90
23815;DHT22;12088;53.078;8.720;2023-02-15T07:06:40;-0.50;99.90
23815;DHT22;12088;53.078;8.720;2023-02-15T07:09:06;-0.40;99.90
23815;DHT22;12088;53.078;8.720;2023-02-15T07:11:31;-0.40;99.90
23815;DHT22;12088;53.078;8.720;2023-02-15T07:14:15;-0.40;99.90
23815;DHT22;12088;53.078;8.720;2023-02-15T07:16:41;-0.30;99.90
23815;DHT22;12088;53.078;8.720;2023-02-15T07:19:06;-0.40;99.90
23815;DHT22;12088;53.078;8.720;2023-02-15T07:21:33;-0.40;99.90
23815;DHT22;12088;53.078;8.720;2023-02-15T07:23:58;-0.30;99.90
23815;DHT22;12088;53.078;8.720;2023-02-15T07:26:24;-0.30;99.90
23815;DHT22;12088;53.078;8.720;2023-02-15T07:28:50;-0.20;99.90
23815;DHT22;12088;53.078;8.720;2023-02-15T07:31:16;-0.10;99.90
23815;DHT22;12088;53.078;8.720;2023-02-15T07:33:41;-0.10;99.90
23815;DHT22;12088;53.078;8.720;2023-02-15T07:36:07;0.10;99.90
23815;DHT22;12088;53.078;8.720;2023-02-15T07:38:36;0.10;99.90
23815;DHT22;12088;53.078;8.720;2023-02-15T07:41:07;0.20;99.90
23815;DHT22;12088;53.078;8.720;2023-02-15T07:43:35;0.20;99.90
23815;DHT22;12088;53.078;8.720;2023-02-15T07:46:02;0.30;99.90
23815;DHT22;12088;53.078;8.720;2023-02-15T07:48:28;0.30;99.90
23815;DHT22;12088;53.078;8.720;2023-02-15T07:50:54;0.40;99.90
23815;DHT22;12088;53.078;8.720;2023-02-15T07:53:23;0.50;99.90
23815;DHT22;12088;53.078;8.720;2023-02-15T07:55:48;0.50;99.90
23815;DHT22;12088;53.078;8.720;2023-02-15T07:58:14;0.50;99.90
23815;DHT22;12088;53.078;8.720;2023-02-15T08:00:39;0.50;99.90
23815;DHT22;12088;53.078;8.720;2023-02-15T08:03:26;0.50;99.90
23815;DHT22;12088;53.078;8.720;2023-02-15T08:05:55;0.50;99.90
23815;DHT22;12088;53.078;8.720;2023-02-15T08:08:21;0.50;99.90
23815;DHT22;12088;53.078;8.720;2023-02-15T08:11:20;0.60;99.90
23815;DHT22;12088;53.078;8.720;2023-02-15T08:14:24;0.90;99.90
23815;DHT22;12088;53.078;8.720;2023-02-15T08:16:54;0.90;99.90
23815;DHT22;12088;53.078;8.720;2023-02-15T08:19:23;1.20;99.90
23815;DHT22;12088;53.078;8.720;2023-02-15T08:21:51;1.50;99.90
23815;DHT22;12088;53.078;8.720;2023-02-15T08:24:19;1.80;99.90
23815;DHT22;12088;53.078;8.720;2023-02-15T08:26:45;1.90;99.90
23815;DHT22;12088;53.078;8.720;2023-02-15T08:29:12;2.00;99.90
23815;DHT22;12088;53.078;8.720;2023-02-15T08:31:38;2.40;99.90
23815;DHT22;12088;53.078;8.720;2023-02-15T08:34:06;2.60;99.90
23815;DHT22;12088;53.078;8.720;2023-02-15T08:36:32;2.70;99.90
23815;DHT22;12088;53.078;8.720;2023-02-15T08:38:59;2.70;99.90
23815;DHT22;12088;53.078;8.720;2023-02-15T08:41:27;2.80;99.90
23815;DHT22;12088;53.078;8.720;2023-02-15T08:43:56;2.90;99.90
23815;DHT22;12088;53.078;8.720;2023-02-15T08:46:23;3.50;99.90
23815;DHT22;12088;53.078;8.720;2023-02-15T08:48:49;4.10;99.90
23815;DHT22;12088;53.078;8.720;2023-02-15T08:51:17;4.10;99.90
23815;DHT22;12088;53.078;8.720;2023-02-15T08:53:47;4.70;99.90
23815;DHT22;12088;53.078;8.720;2023-02-15T08:56:16;4.80;99.90
23815;DHT22;12088;53.078;8.720;2023-02-15T08:58:42;5.00;99.90
23815;DHT22;12088;53.078;8.720;2023-02-15T09:01:13;5.50;99.90
23815;DHT22;12088;53.078;8.720;2023-02-15T09:03:39;5.80;99.90
23815;DHT22;12088;53.078;8.720;2023-02-15T09:06:06;6.40;99.90
23815;DHT22;12088;53.078;8.720;2023-02-15T09:08:32;6.50;99.90
23815;DHT22;12088;53.078;8.720;2023-02-15T09:11:15;6.30;99.90
23815;DHT22;12088;53.078;8.720;2023-02-15T09:13:52;6.40;99.90
23815;DHT22;12088;53.078;8.720;2023-02-15T09:16:19;7.10;99.90
23815;DHT22;12088;53.078;8.720;2023-02-15T09:18:45;7.60;99.90
23815;DHT22;12088;53.078;8.720;2023-02-15T09:21:13;7.90;99.90
23815;DHT22;12088;53.078;8.720;2023-02-15T09:23:44;7.70;99.90
23815;DHT22;12088;53.078;8.720;2023-02-15T09:26:12;8.00;99.90
23815;DHT22;12088;53.078;8.720;2023-02-15T09:28:39;8.50;99.90
23815;DHT22;12088;53.078;8.720;2023-02-15T09:31:16;9.50;99.90
23815;DHT22;12088;53.078;8.720;2023-02-15T09:33:43;10.20;99.90
23815;DHT22;12088;53.078;8.720;2023-02-15T09:36:32;11.10;99.90
23815;DHT22;12088;53.078;8.720;2023-02-15T09:39:15;10.90;99.90
23815;DHT22;12088;53.078;8.720;2023-02-15T09:52:51;11.80;99.90
23815;DHT22;12088;53.078;8.720;2023-02-15T09:55:24;12.40;99.90
23815;DHT22;12088;53.078;8.720;2023-02-15T10:00:50;13.50;99.90
23815;DHT22;12088;53.078;8.720;2023-02-15T10:06:43;13.30;99.90
23815;DHT22;12088;53.078;8.720;2023-02-15T10:09:38;13.00;99.90
23815;DHT22;12088;53.078;8.720;2023-02-15T10:12:34;13.20;99.90
23815;DHT22;12088;53.078;8.720;2023-02-15T10:15:29;14.60;99.90
23815;DHT22;12088;53.078;8.720;2023-02-15T10:18:09;15.40;99.90
23815;DHT22;12088;53.078;8.720;2023-02-15T10:20:44;14.90;99.90
23815;DHT22;12088;53.078;8.720;2023-02-15T10:28:32;15.60;99.90
23815;DHT22;12088;53.078;8.720;2023-02-15T10:31:22;16.30;99.90
23815;DHT22;12088;53.078;8.720;2023-02-15T10:33:55;17.00;99.90
23815;DHT22;12088;53.078;8.720;2023-02-15T10:39:30;17.50;99.90
23815;DHT22;12088;53.078;8.720;2023-02-15T10:47:37;17.30;99.90
23815;DHT22;12088;53.078;8.720;2023-02-15T11:04:41;17.40;99.90
23815;DHT22;12088;53.078;8.720;2023-02-15T11:07:24;18.90;99.90
23815;DHT22;12088;53.078;8.720;2023-02-15T11:12:40;19.30;99.90
23815;DHT22;12088;53.078;8.720;2023-02-15T11:17:44;19.40;99.90
23815;DHT22;12088;53.078;8.720;2023-02-15T11:20:18;17.20;99.90
23815;DHT22;12088;53.078;8.720;2023-02-15T11:22:48;17.10;99.90
23815;DHT22;12088;53.078;8.720;2023-02-15T11:25:19;17.80;99.90
23815;DHT22;12088;53.078;8.720;2023-02-15T11:27:47;18.80;99.90
23815;DHT22;12088;53.078;8.720;2023-02-15T11:30:17;18.10;99.90
23815;DHT22;12088;53.078;8.720;2023-02-15T11:32:47;18.00;99.90
23815;DHT22;12088;53.078;8.720;2023-02-15T11:38:11;17.40;99.90
23815;DHT22;12088;53.078;8.720;2023-02-15T11:40:47;17.40;99.90
23815;DHT22;12088;53.078;8.720;2023-02-15T11:43:20;17.50;99.90
23815;DHT22;12088;53.078;8.720;2023-02-15T11:45:47;17.50;99.90
23815;DHT22;12088;53.078;8.720;2023-02-15T11:48:14;18.80;99.90
23815;DHT22;12088;53.078;8.720;2023-02-15T11:50:41;20.30;99.90
23815;DHT22;12088;53.078;8.720;2023-02-15T11:53:12;20.70;99.90
23815;DHT22;12088;53.078;8.720;2023-02-15T11:55:39;20.90;99.90
23815;DHT22;12088;53.078;8.720;2023-02-15T12:00:35;20.80;99.90
23815;DHT22;12088;53.078;8.720;2023-02-15T12:03:24;20.90;99.90
23815;DHT22;12088;53.078;8.720;2023-02-15T12:05:57;20.00;99.90
23815;DHT22;12088;53.078;8.720;2023-02-15T12:08:24;18.30;99.90
23815;DHT22;12088;53.078;8.720;2023-02-15T12:10:58;17.80;99.90
23815;DHT22;12088;53.078;8.720;2023-02-15T12:13:26;17.80;99.90
23815;DHT22;12088;53.078;8.720;2023-02-15T12:15:54;16.80;99.90
23815;DHT22;12088;53.078;8.720;2023-02-15T12:18:38;16.10;99.90
23815;DHT22;12088;53.078;8.720;2023-02-15T12:21:25;15.70;99.90
23815;DHT22;12088;53.078;8.720;2023-02-15T12:23:52;15.90;99.90
23815;DHT22;12088;53.078;8.720;2023-02-15T12:26:30;15.90;99.90
23815;DHT22;12088;53.078;8.720;2023-02-15T12:28:59;16.30;99.90
23815;DHT22;12088;53.078;8.720;2023-02-15T12:31:39;15.60;99.90
23815;DHT22;12088;53.078;8.720;2023-02-15T12:36:45;15.80;99.90
23815;DHT22;12088;53.078;8.720;2023-02-15T12:39:21;15.90;99.90
23815;DHT22;12088;53.078;8.720;2023-02-15T12:41:59;16.00;99.90
23815;DHT22;12088;53.078;8.720;2023-02-15T12:44:27;15.30;99.90
23815;DHT22;12088;53.078;8.720;2023-02-15T12:47:18;15.00;99.90
23815;DHT22;12088;53.078;8.720;2023-02-15T12:50:05;15.70;99.90
23815;DHT22;12088;53.078;8.720;2023-02-15T12:52:31;16.10;99.90
23815;DHT22;12088;53.078;8.720;2023-02-15T12:55:10;16.00;99.90
23815;DHT22;12088;53.078;8.720;2023-02-15T12:57:36;14.80;99.90
23815;DHT22;12088;53.078;8.720;2023-02-15T13:00:29;15.30;99.90
23815;DHT22;12088;53.078;8.720;2023-02-15T13:02:55;15.90;99.90
23815;DHT22;12088;53.078;8.720;2023-02-15T13:07:59;16.10;99.90
23815;DHT22;12088;53.078;8.720;2023-02-15T13:10:35;16.70;99.90
23815;DHT22;12088;53.078;8.720;2023-02-15T13:13:09;17.50;99.90
23815;DHT22;12088;53.078;8.720;2023-02-15T13:15:37;16.70;99.90
23815;DHT22;12088;53.078;8.720;2023-02-15T13:18:05;16.50;99.90
23815;DHT22;12088;53.078;8.720;2023-02-15T13:20:35;16.30;99.90
23815;DHT22;12088;53.078;8.720;2023-02-15T13:23:04;16.90;99.90
23815;DHT22;12088;53.078;8.720;2023-02-15T13:25:38;15.90;99.90
23815;DHT22;12088;53.078;8.720;2023-02-15T13:28:13;16.40;99.90
23815;DHT22;12088;53.078;8.720;2023-02-15T13:30:43;16.90;99.90
23815;DHT22;12088;53.078;8.720;2023-02-15T13:33:22;16.50;99.90
23815;DHT22;12088;53.078;8.720;2023-02-15T13:36:15;16.90;99.90
23815;DHT22;12088;53.078;8.720;2023-02-15T13:38:49;16.80;99.90
23815;DHT22;12088;53.078;8.720;2023-02-15T13:41:23;15.90;99.90
23815;DHT22;12088;53.078;8.720;2023-02-15T13:44:07;16.20;99.90
23815;DHT22;12088;53.078;8.720;2023-02-15T13:55:29;15.80;99.90
23815;DHT22;12088;53.078;8.720;2023-02-15T13:58:37;15.40;99.90
23815;DHT22;12088;53.078;8.720;2023-02-15T14:01:49;16.40;99.90
23815;DHT22;12088;53.078;8.720;2023-02-15T14:07:19;17.10;99.90
23815;DHT22;12088;53.078;8.720;2023-02-15T14:10:02;16.40;99.90
23815;DHT22;12088;53.078;8.720;2023-02-15T14:15:50;15.60;99.90
23815;DHT22;12088;53.078;8.720;2023-02-15T14:18:34;15.10;99.90
23815;DHT22;12088;53.078;8.720;2023-02-15T14:21:12;15.10;99.90
23815;DHT22;12088;53.078;8.720;2023-02-15T14:24:06;15.40;99.90
23815;DHT22;12088;53.078;8.720;2023-02-15T14:26:59;15.20;99.90
23815;DHT22;12088;53.078;8.720;2023-02-15T14:32:21;16.20;99.90
23815;DHT22;12088;53.078;8.720;2023-02-15T14:34:52;15.70;99.90
23815;DHT22;12088;53.078;8.720;2023-02-15T14:40:34;14.60;99.90
23815;DHT22;12088;53.078;8.720;2023-02-15T14:43:52;14.00;99.90
23815;DHT22;12088;53.078;8.720;2023-02-15T14:46:38;13.60;99.90
23815;DHT22;12088;53.078;8.720;2023-02-15T14:49:12;13.40;99.90
23815;DHT22;12088;53.078;8.720;2023-02-15T14:59:46;13.60;99.90
23815;DHT22;12088;53.078;8.720;2023-02-15T15:02:27;13.30;99.90
23815;DHT22;12088;53.078;8.720;2023-02-15T15:05:01;12.80;99.90
23815;DHT22;12088;53.078;8.720;2023-02-15T15:07:47;12.30;99.90
23815;DHT22;12088;53.078;8.720;2023-02-15T15:12:57;11.90;99.90
23815;DHT22;12088;53.078;8.720;2023-02-15T15:18:04;11.70;99.90
23815;DHT22;12088;53.078;8.720;2023-02-15T15:20:49;11.70;99.90
23815;DHT22;12088;53.078;8.720;2023-02-15T15:25:52;11.50;99.90
23815;DHT22;12088;53.078;8.720;2023-02-15T15:31:18;11.20;99.90
23815;DHT22;12088;53.078;8.720;2023-02-15T15:48:28;10.80;99.90
23815;DHT22;12088;53.078;8.720;2023-02-15T15:50:58;10.80;99.90
23815;DHT22;12088;53.078;8.720;2023-02-15T15:53:26;10.50;99.90
23815;DHT22;12088;53.078;8.720;2023-02-15T15:55:58;10.40;99.90
23815;DHT22;12088;53.078;8.720;2023-02-15T15:58:24;10.50;99.90
23815;DHT22;12088;53.078;8.720;2023-02-15T16:01:10;10.30;99.90
23815;DHT22;12088;53.078;8.720;2023-02-15T16:03:49;10.20;99.90
23815;DHT22;12088;53.078;8.720;2023-02-15T16:06:27;10.10;99.90
23815;DHT22;12088;53.078;8.720;2023-02-15T16:08:53;10.00;99.90
23815;DHT22;12088;53.078;8.720;2023-02-15T16:11:23;9.80;99.90
23815;DHT22;12088;53.078;8.720;2023-02-15T16:13:49;9.80;99.90
23815;DHT22;12088;53.078;8.720;2023-02-15T16:16:21;9.80;99.90
23815;DHT22;12088;53.078;8.720;2023-02-15T16:18:47;9.70;99.90
23815;DHT22;12088;53.078;8.720;2023-02-15T16:21:18;9.60;99.90
23815;DHT22;12088;53.078;8.720;2023-02-15T16:24:13;9.50;99.90
23815;DHT22;12088;53.078;8.720;2023-02-15T16:29:18;9.40;99.90
23815;DHT22;12088;53.078;8.720;2023-02-15T16:31:57;9.30;99.90
23815;DHT22;12088;53.078;8.720;2023-02-15T16:34:23;9.30;99.90
23815;DHT22;12088;53.078;8.720;2023-02-15T16:36:48;9.20;99.90
23815;DHT22;12088;53.078;8.720;2023-02-15T16:39:19;9.30;99.90
23815;DHT22;12088;53.078;8.720;2023-02-15T16:41:45;9.20;99.90
23815;DHT22;12088;53.078;8.720;2023-02-15T16:44:17;9.20;99.90
23815;DHT22;12088;53.078;8.720;2023-02-15T16:46:47;9.00;99.90
23815;DHT22;12088;53.078;8.720;2023-02-15T16:49:26;9.00;99.90
23815;DHT22;12088;53.078;8.720;2023-02-15T16:52:01;8.90;99.90
23815;DHT22;12088;53.078;8.720;2023-02-15T16:54:28;8.90;99.90
23815;DHT22;12088;53.078;8.720;2023-02-15T16:56:55;8.90;99.90
23815;DHT22;12088;53.078;8.720;2023-02-15T16:59:48;8.80;99.90
23815;DHT22;12088;53.078;8.720;2023-02-15T17:02:18;8.80;99.90
23815;DHT22;12088;53.078;8.720;2023-02-15T17:04:44;8.70;99.90
23815;DHT22;12088;53.078;8.720;2023-02-15T17:09:53;8.60;99.90
23815;DHT22;12088;53.078;8.720;2023-02-15T17:12:55;8.60;99.90
23815;DHT22;12088;53.078;8.720;2023-02-15T17:15:36;8.50;99.90
23815;DHT22;12088;53.078;8.720;2023-02-15T17:18:15;8.60;99.90
23815;DHT22;12088;53.078;8.720;2023-02-15T17:20:42;8.50;99.90
23815;DHT22;12088;53.078;8.720;2023-02-15T17:23:22;8.50;99.90
23815;DHT22;12088;53.078;8.720;2023-02-15T17:25:51;8.30;99.90
23815;DHT22;12088;53.078;8.720;2023-02-15T17:28:19;8.20;99.90
23815;DHT22;12088;53.078;8.720;2023-02-15T17:30:45;8.10;99.90
23815;DHT22;12088;53.078;8.720;2023-02-15T17:36:03;8.20;99.90
23815;DHT22;12088;53.078;8.720;2023-02-15T17:38:30;8.20;99.90
23815;DHT22;12088;53.078;8.720;2023-02-15T17:40:56;8.10;99.90
23815;DHT22;12088;53.078;8.720;2023-02-15T17:43:23;8.10;99.90
23815;DHT22;12088;53.078;8.720;2023-02-15T17:45:50;8.10;99.90
23815;DHT22;12088;53.078;8.720;2023-02-15T17:48:28;8.10;99.90
23815;DHT22;12088;53.078;8.720;2023-02-15T17:50:56;8.00;99.90
23815;DHT22;12088;53.078;8.720;2023-02-15T17:53:22;7.90;99.90
23815;DHT22;12088;53.078;8.720;2023-02-15T17:55:48;7.90;99.90
23815;DHT22;12088;53.078;8.720;2023-02-15T17:58:15;7.80;99.90
23815;DHT22;12088;53.078;8.720;2023-02-15T18:00:46;7.70;99.90
23815;DHT22;12088;53.078;8.720;2023-02-15T18:03:49;7.70;99.90
23815;DHT22;12088;53.078;8.720;2023-02-15T18:06:34;7.70;99.90
23815;DHT22;12088;53.078;8.720;2023-02-15T18:09:20;7.60;99.90
23815;DHT22;12088;53.078;8.720;2023-02-15T18:14:44;7.60;99.90
23815;DHT22;12088;53.078;8.720;2023-02-15T18:17:14;7.50;99.90
23815;DHT22;12088;53.078;8.720;2023-02-15T18:19:42;7.40;99.90
23815;DHT22;12088;53.078;8.720;2023-02-15T18:22:13;7.30;99.90
23815;DHT22;12088;53.078;8.720;2023-02-15T18:24:39;7.30;99.90
23815;DHT22;12088;53.078;8.720;2023-02-15T18:27:05;7.30;99.90
23815;DHT22;12088;53.078;8.720;2023-02-15T18:29:31;7.30;99.90
23815;DHT22;12088;53.078;8.720;2023-02-15T18:31:57;7.20;99.90